createdAt,value
2024-02-28T00:01:54.470Z,15.2
2024-02-28T00:12:03.399Z,15.2
2024-02-28T00:22:12.281Z,15.3
2024-02-28T00:32:21.206Z,15.3
2024-02-28T00:42:30.044Z,15.1
2024-02-28T00:52:39.099Z,15.1
2024-02-28T01:02:47.942Z,15.1
2024-02-28T01:12:56.933Z,14.8
2024-02-28T01:23:05.916Z,14.4
2024-02-28T01:33:14.774Z,14.2
2024-02-28T01:43:23.756Z,14.1
2024-02-28T01:53:32.794Z,13.7
2024-02-28T02:03:41.640Z,13.5
2024-02-28T02:13:50.515Z,13.4
2024-02-28T02:24:02.058Z,13.2
2024-02-28T02:34:01.044Z,13.2
2024-02-28T02:44:09.844Z,13.1
2024-02-28T02:54:21.169Z,12.9
2024-02-28T03:04:19.967Z,12.7
2024-02-28T03:14:28.964Z,12.5
2024-02-28T03:24:37.847Z,12.5
2024-02-28T03:34:47.832Z,12.5
2024-02-28T03:44:46.662Z,12.4
2024-02-28T03:54:55.642Z,12.2
2024-02-28T04:05:04.512Z,12.1
2024-02-28T04:15:15.385Z,12.1
2024-02-28T04:25:21.983Z,12.1
2024-02-28T04:35:30.744Z,12
2024-02-28T04:45:39.905Z,11.8
2024-02-28T04:55:48.742Z,11.8
2024-02-28T05:05:57.939Z,11.7
2024-02-28T05:16:06.921Z,11.6
2024-02-28T05:26:15.951Z,11.6
2024-02-28T05:36:25.134Z,11.8
2024-02-28T05:46:34.057Z,11.6
2024-02-28T05:56:42.943Z,11.7
2024-02-28T06:06:52.277Z,11.6
2024-02-28T06:17:02.346Z,11.7
2024-02-28T06:27:01.226Z,11.7
2024-02-28T06:37:10.150Z,11.6
2024-02-28T06:47:19.048Z,11.5
2024-02-28T06:57:19.279Z,11.5
2024-02-28T07:07:28.553Z,11.6
2024-02-28T07:17:37.724Z,11.4
2024-02-28T07:27:47.427Z,11.5
2024-02-28T07:37:56.611Z,11.7
2024-02-28T07:48:07.422Z,11.6
2024-02-28T07:58:09.983Z,11.7
2024-02-28T08:08:12.375Z,12
2024-02-28T08:18:21.902Z,12
2024-02-28T08:28:30.961Z,12
2024-02-28T08:38:40.233Z,12.4
2024-02-28T08:48:49.418Z,12.3
2024-02-28T08:58:59.947Z,12.5
2024-02-28T09:09:00.874Z,12.6
2024-02-28T09:19:03.877Z,12.9
2024-02-28T09:29:03.334Z,12.9
2024-02-28T09:39:12.365Z,12.7
2024-02-28T09:49:21.855Z,13
2024-02-28T09:59:24.866Z,13.1
2024-02-28T10:09:31.464Z,13.3
2024-02-28T10:19:40.362Z,13.6
2024-02-28T10:29:49.567Z,14
2024-02-28T10:39:58.774Z,14.1
2024-02-28T10:50:01.144Z,14.4
2024-02-28T11:00:10.424Z,14.5
2024-02-28T11:10:19.800Z,14.5
2024-02-28T11:20:29.374Z,14.9
2024-02-28T11:30:38.923Z,14.7
2024-02-28T11:40:48.321Z,14.8
2024-02-28T11:50:48.831Z,15.4
2024-02-28T12:00:49.581Z,16.7
2024-02-28T12:10:58.806Z,17.4
2024-02-28T12:21:08.781Z,17.4
2024-02-28T12:31:10.010Z,17.7
2024-02-28T12:41:09.427Z,17.7
2024-02-28T12:51:18.516Z,18.2
2024-02-28T13:01:27.737Z,18.6
2024-02-28T13:11:36.669Z,18.9
2024-02-28T13:21:45.757Z,19.6
2024-02-28T13:31:46.004Z,19.4
2024-02-28T13:41:47.435Z,19.7
2024-02-28T13:51:56.464Z,19.8
2024-02-28T14:02:05.691Z,18.4
2024-02-28T14:12:18.649Z,17.6
2024-02-28T14:22:18.194Z,17.8
2024-02-28T14:32:19.092Z,17.4
2024-02-28T14:42:20.792Z,17.5
2024-02-28T14:52:22.553Z,17.2
2024-02-28T15:02:24.806Z,17.1
2024-02-28T15:12:33.983Z,16.9
2024-02-28T15:22:36.093Z,17.1
2024-02-28T15:32:45.138Z,17.1
2024-02-28T15:42:54.158Z,17.1
2024-02-28T15:53:03.411Z,17.1
2024-02-28T16:03:13.162Z,17
2024-02-28T16:13:14.476Z,17.2
2024-02-28T16:23:25.178Z,16.9
2024-02-28T16:33:24.045Z,17.2
2024-02-28T16:43:32.480Z,16.9
2024-02-28T16:53:41.318Z,16.9
2024-02-28T17:03:50.382Z,16.5
2024-02-28T17:13:59.007Z,16.1
2024-02-28T17:24:08.558Z,15.9
2024-02-28T17:34:17.737Z,15.6
2024-02-28T17:44:26.750Z,15.5
2024-02-28T17:54:37.074Z,15.7
2024-02-28T18:04:36.162Z,15.6
2024-02-28T18:14:37.454Z,15.7
2024-02-28T18:24:37.709Z,15.5
2024-02-28T18:34:47.739Z,15.5
2024-02-28T18:44:55.616Z,15.4
2024-02-28T18:54:56.500Z,15
2024-02-28T19:05:09.948Z,14.4
2024-02-28T19:15:11.118Z,14.4
2024-02-28T19:25:13.188Z,14.4
2024-02-28T19:35:13.166Z,14.2
2024-02-28T19:45:17.021Z,13.9
2024-02-28T20:05:20.208Z,13.2
2024-02-28T20:25:22.481Z,12.8
2024-02-28T20:35:31.312Z,13.1
2024-02-28T20:45:40.255Z,13
2024-02-28T20:55:48.993Z,12.9
2024-02-28T21:05:57.782Z,12.5
2024-02-28T21:16:06.674Z,12.4
2024-02-28T21:26:15.541Z,12.3
2024-02-28T21:36:24.394Z,12.2
2024-02-28T21:46:33.229Z,11.9
2024-02-28T21:56:42.058Z,11.8
2024-02-28T22:06:50.881Z,11.7
2024-02-28T22:16:59.815Z,11.8
2024-02-28T22:27:08.665Z,11.7
2024-02-28T22:37:17.496Z,11.5
2024-02-28T22:47:26.476Z,11.3
2024-02-28T22:57:35.427Z,11.1
2024-02-28T23:07:44.144Z,11.1
2024-02-28T23:17:53.169Z,11.1
2024-02-28T23:28:02.333Z,10.9
2024-02-28T23:38:12.283Z,10.6
2024-02-28T23:48:21.096Z,10.3
2024-02-28T23:58:29.937Z,9.9
